Time;durP1;ratioP1;P1;durP2;ratioP2;P2;SDS_P1;SDS_P2;PMS_P1;PMS_P2;Temp;Humidity;BMP_temperature;BMP_pressure;BME280_temperature;BME280_humidity;BME280_pressure;Samples;Min_cycle;Max_cycle;Signal;HPM_P1;HPM_P2
2021/09/02 00:02:32;;;;;;;;;34.33;32.00;;;;;21.04;66.54;100231.84;5034357;28;8988;-67
2021/09/02 00:05:28;;;;;;;;;44.67;37.33;;;;;20.75;66.46;100229.22;5034105;28;9081;-67
2021/09/02 00:08:23;;;;;;;;;45.00;38.67;;;;;20.45;68.07;100234.63;5031899;28;9095;-67
2021/09/02 00:11:19;;;;;;;;;42.33;37.00;;;;;20.45;68.07;100229.81;5034205;28;9318;-67
2021/09/02 00:14:15;;;;;;;;;49.00;41.33;;;;;20.31;68.17;100235.47;5034026;28;9106;-67
2021/09/02 00:17:10;;;;;;;;;50.67;42.00;;;;;20.39;67.78;100228.59;5024057;28;9274;-67
2021/09/02 00:20:07;;;;;;;;;49.00;41.33;;;;;20.12;68.47;100228.34;5014373;28;9414;-67
2021/09/02 00:23:02;;;;;;;;;50.75;41.75;;;;;20.35;67.72;100221.41;5014071;28;9471;-67
2021/09/02 00:25:58;;;;;;;;;70.50;56.25;;;;;20.35;67.04;100227.03;5032581;28;9522;-68
2021/09/02 00:28:53;;;;;;;;;67.25;53.25;;;;;20.28;67.83;100237.09;5033680;28;10447;-68
2021/09/02 00:31:49;;;;;;;;;57.75;47.00;;;;;20.27;67.77;100221.44;5033715;28;10304;-67
2021/09/02 00:34:16;;;;;;;;;62.50;49.00;;;;;20.25;67.72;100228.69;5033991;28;10144;-68
2021/09/02 00:37:12;;;;;;;;;60.75;48.75;;;;;20.61;67.40;100223.69;5033301;28;10078;-68
2021/09/02 00:40:08;;;;;;;;;64.75;51.50;;;;;21.13;66.19;100225.75;5033492;28;10044;-67
2021/09/02 00:43:04;;;;;;;;;65.75;53.00;;;;;20.63;66.37;100224.09;5033251;28;10981;-67
2021/09/02 00:45:59;;;;;;;;;63.75;52.25;;;;;20.68;67.17;100220.84;5032902;28;10116;-67
2021/09/02 00:48:55;;;;;;;;;69.25;54.75;;;;;20.76;66.52;100218.78;5012869;28;10045;-68
2021/09/02 00:51:51;;;;;;;;;63.25;51.50;;;;;20.73;66.89;100202.75;5013457;28;10446;-67
2021/09/02 00:54:53;;;;;;;;;72.75;61.50;;;;;20.74;66.57;100196.72;5013530;28;10469;-67
2021/09/02 00:57:48;;;;;;;;;78.75;71.50;;;;;20.48;66.65;100192.50;5013329;28;10924;-68
2021/09/02 01:00:17;;;;;;;;;84.00;75.25;;;;;20.37;67.11;100188.09;5014756;28;11196;-68
2021/09/02 01:03:12;;;;;;;;;84.75;78.25;;;;;20.14;68.10;100183.00;5013204;28;11593;-68
2021/09/02 01:06:08;;;;;;;;;75.50;64.50;;;;;20.19;68.65;100177.78;5012310;28;11580;-67
2021/09/02 01:09:04;;;;;;;;;69.25;56.50;;;;;20.28;68.30;100183.72;5013156;28;10872;-67
2021/09/02 01:12:25;;;;;;;;;67.50;53.00;;;;;20.62;68.16;100177.53;5013138;28;10595;-68
2021/09/02 01:15:26;;;;;;;;;61.25;47.00;;;;;20.80;66.55;100183.84;5013158;28;10552;-68
2021/09/02 01:18:22;;;;;;;;;45.00;38.00;;;;;20.67;66.09;100176.31;5024884;28;9760;-68
2021/09/02 01:21:17;;;;;;;;;61.75;48.50;;;;;20.89;66.59;100174.94;5012689;28;9258;-67
2021/09/02 01:24:14;;;;;;;;;31.25;30.00;;;;;20.80;65.49;100166.97;5013580;28;9732;-68
2021/09/02 01:27:09;;;;;;;;;33.50;30.25;;;;;21.05;65.47;100158.34;5012647;28;8852;-68
2021/09/02 01:30:08;;;;;;;;;40.25;34.50;;;;;20.82;64.18;100166.56;5013106;28;8840;-67
2021/09/02 01:33:05;;;;;;;;;32.25;31.25;;;;;20.79;65.42;100165.38;5012937;28;8962;-68
2021/09/02 01:36:01;;;;;;;;;32.75;31.25;;;;;20.74;64.46;100148.97;5012788;28;8925;-68
2021/09/02 01:38:56;;;;;;;;;37.00;33.25;;;;;20.63;65.31;100153.88;5012875;28;8852;-68
2021/09/02 01:41:52;;;;;;;;;36.75;33.25;;;;;20.93;65.51;100141.19;5012993;28;9586;-68
2021/09/02 01:44:33;;;;;;;;;27.50;27.50;;;;;20.85;63.74;100136.81;5013275;28;8999;-68
2021/09/02 01:47:29;;;;;;;;;29.25;29.25;;;;;20.65;64.24;100140.22;5024680;28;10119;-68
2021/09/02 01:50:26;;;;;;;;;28.00;27.25;;;;;20.65;64.02;100153.47;5032580;28;8919;-68
2021/09/02 01:53:22;;;;;;;;;29.25;28.75;;;;;20.60;66.52;100156.69;5032631;28;8888;-68
2021/09/02 01:56:17;;;;;;;;;30.25;29.75;;;;;20.68;65.43;100155.44;5032259;28;8945;-68
2021/09/02 01:59:13;;;;;;;;;35.75;33.00;;;;;20.52;65.22;100161.56;5032404;28;8905;-68
2021/09/02 02:01:40;;;;;;;;;33.00;31.75;;;;;20.24;66.00;100154.06;5032904;28;8926;-67
2021/09/02 02:04:36;;;;;;;;;35.50;33.00;;;;;20.39;65.64;100147.16;5032441;28;8871;-68
2021/09/02 02:07:04;;;;;;;;;40.25;34.50;;;;;20.29;65.80;100148.03;5030643;28;8932;-69
2021/09/02 02:09:59;;;;;;;;;34.25;32.00;;;;;20.26;66.04;100146.06;5012758;28;9590;-68
2021/09/02 02:12:57;;;;;;;;;34.00;31.25;;;;;20.51;65.70;100143.91;5012538;28;8844;-68
2021/09/02 02:15:53;;;;;;;;;33.75;32.25;;;;;20.36;64.89;100150.78;5012461;28;8959;-68
2021/09/02 02:18:48;;;;;;;;;35.00;33.00;;;;;20.11;65.90;100147.34;4992977;28;8842;-68
2021/09/02 02:21:16;;;;;;;;;26.75;25.75;;;;;19.91;66.76;100156.25;4993334;28;8889;-68
2021/09/02 02:24:11;;;;;;;;;36.00;33.67;;;;;19.92;67.14;100143.81;4992915;28;9001;-68
2021/09/02 02:27:07;;;;;;;;;34.67;32.67;;;;;20.10;66.74;100145.75;4992676;28;8938;-68
2021/09/02 02:30:04;;;;;;;;;30.33;30.33;;;;;20.26;66.21;100144.03;4992781;28;9794;-68
2021/09/02 02:32:59;;;;;;;;;36.33;32.33;;;;;20.27;66.28;100144.84;4993477;28;8936;-68
2021/09/02 02:35:55;;;;;;;;;41.67;35.33;;;;;20.14;66.44;100138.88;4996230;28;8954;-68
2021/09/02 02:38:51;;;;;;;;;36.67;33.00;;;;;20.00;66.64;100144.56;4996438;28;9080;-68
2021/09/02 02:41:46;;;;;;;;;35.67;31.67;;;;;20.03;66.82;100149.38;4997815;28;9359;-68
2021/09/02 02:44:42;;;;;;;;;32.75;31.75;;;;;19.98;66.65;100144.19;4996325;28;9026;-68
2021/09/02 02:47:09;;;;;;;;;43.00;37.33;;;;;20.22;66.73;100148.88;5014206;28;8870;-69
2021/09/02 02:50:06;;;;;;;;;45.00;39.33;;;;;20.29;66.42;100142.41;5016994;28;8931;-68
2021/09/02 02:53:02;;;;;;;;;41.67;36.33;;;;;20.33;65.74;100137.59;5015752;28;9385;-68
2021/09/02 02:55:58;;;;;;;;;44.67;37.67;;;;;20.11;66.30;100142.53;5015628;28;9165;-68
2021/09/02 02:58:25;;;;;;;;;43.00;37.00;;;;;19.84;66.71;100147.06;5023811;28;9980;-68
2021/09/02 03:01:21;;;;;;;;;34.67;32.33;;;;;19.72;66.81;100134.28;5025104;28;10206;-68
2021/09/02 03:04:16;;;;;;;;;40.00;34.67;;;;;19.55;66.94;100138.72;5002703;28;9320;-68
2021/09/02 03:07:12;;;;;;;;;35.00;33.33;;;;;19.43;67.88;100136.34;5004169;28;9112;-68
2021/09/02 03:10:08;;;;;;;;;37.00;34.33;;;;;19.31;68.32;100126.34;5015752;28;9310;-67
2021/09/02 03:13:04;;;;;;;;;34.00;32.67;;;;;19.23;68.64;100123.97;5015341;28;9405;-68
2021/09/02 03:15:59;;;;;;;;;39.00;35.67;;;;;19.14;69.19;100121.56;5015282;28;9205;-68
2021/09/02 03:18:55;;;;;;;;;39.00;36.00;;;;;19.11;68.94;100116.78;5015919;28;9333;-68
2021/09/02 03:21:23;;;;;;;;;38.67;35.67;;;;;19.05;69.35;100116.38;5018295;28;9249;-68
2021/09/02 03:24:19;;;;;;;;;37.33;34.67;;;;;19.05;69.82;100116.38;5013688;28;9753;-68
2021/09/02 03:27:15;;;;;;;;;36.67;34.00;;;;;18.83;70.70;100115.59;5015009;28;9275;-68
2021/09/02 03:30:11;;;;;;;;;45.25;38.75;;;;;18.89;70.29;100113.19;5015040;28;9241;-68
2021/09/02 03:33:07;;;;;;;;;45.00;37.00;;;;;18.69;71.31;100131.59;5014986;28;9541;-68
2021/09/02 03:36:02;;;;;;;;;53.50;45.75;;;;;18.50;73.22;100127.16;5014841;28;9449;-68
2021/09/02 03:38:58;;;;;;;;;45.00;38.25;;;;;18.62;72.36;100127.56;5020021;28;10581;-68
2021/09/02 03:41:53;;;;;;;;;45.00;37.75;;;;;18.75;72.29;100138.41;5014725;28;9607;-68
2021/09/02 03:44:49;;;;;;;;;44.25;38.50;;;;;18.77;71.37;100150.00;5014394;28;9607;-68
2021/09/02 03:47:47;;;;;;;;;42.25;36.50;;;;;18.73;71.88;100136.03;5012957;28;9903;-68
2021/09/02 03:50:17;;;;;;;;;41.00;36.00;;;;;18.78;71.50;100134.81;5019822;28;9661;-68
2021/09/02 03:53:12;;;;;;;;;47.50;40.00;;;;;18.97;70.98;100131.59;5034387;28;9751;-68
2021/09/02 03:56:08;;;;;;;;;50.50;42.00;;;;;19.31;72.20;100128.34;5032683;28;9587;-68
2021/09/02 03:58:51;;;;;;;;;50.75;41.75;;;;;19.33;70.50;100131.56;5028979;28;9901;-68
2021/09/02 04:01:20;;;;;;;;;49.50;41.50;;;;;19.65;70.19;100126.69;4998646;28;9791;-67
2021/09/02 04:04:15;;;;;;;;;39.75;36.25;;;;;19.84;69.80;100122.59;5016304;28;9706;-67
2021/09/02 04:07:11;;;;;;;;;39.33;34.00;;;;;20.24;69.35;100128.78;5014051;28;9527;-67
2021/09/02 04:10:01;;;;;;;;;41.67;37.00;;;;;20.28;69.01;100129.59;5013563;28;10110;-67
2021/09/02 04:12:35;;;;;;;;;39.67;36.00;;;;;20.13;69.60;100126.06;5014248;28;9179;-68
2021/09/02 04:15:03;;;;;;;;;40.33;36.00;;;;;20.31;69.34;100130.78;5014569;28;9014;-67
2021/09/02 04:17:32;;;;;;;;;37.00;33.67;;;;;20.24;70.00;100123.19;5014322;28;9248;-67
2021/09/02 04:20:13;;;;;;;;;38.33;34.33;;;;;20.58;68.98;100119.78;5014400;28;9028;-67
2021/09/02 04:23:09;;;;;;;;;67.75;45.75;;;;;20.60;68.67;100106.94;5014070;28;9021;-67
2021/09/02 04:26:04;;;;;;;;;36.33;32.33;;;;;20.51;68.99;100098.97;5013885;28;9964;-68
2021/09/02 04:29:00;;;;;;;;;32.00;30.67;;;;;20.57;68.79;100102.16;5013593;28;9012;-69
2021/09/02 04:31:55;;;;;;;;;43.67;35.00;;;;;20.92;68.10;100092.59;4996884;28;9116;-71
2021/09/02 04:34:51;;;;;;;;;35.67;33.00;;;;;21.21;67.14;100081.06;4992754;28;8930;-71
2021/09/02 04:37:19;;;;;;;;;39.50;34.25;;;;;21.30;66.39;100072.97;4994642;28;9848;-71
2021/09/02 04:39:46;;;;;;;;;42.50;36.25;;;;;21.56;65.61;100075.09;4994607;28;9564;-71
2021/09/02 04:42:14;;;;;;;;;39.33;34.00;;;;;21.55;65.34;100075.50;4996650;28;8953;-71
2021/09/02 04:44:42;;;;;;;;;46.67;40.00;;;;;21.74;64.79;100074.84;5004802;28;8994;-71
2021/09/02 04:47:10;;;;;;;;;70.25;56.50;;;;;21.77;64.80;100076.00;5013487;28;9099;-71
2021/09/02 04:49:41;;;;;;;;;78.50;65.25;;;;;21.72;64.99;100076.50;5007544;28;10382;-71
2021/09/02 04:52:15;;;;;;;;;79.75;72.25;;;;;21.61;65.82;100077.41;5012702;28;11114;-70
2021/09/02 04:54:44;;;;;;;;;85.25;66.50;;;;;21.43;65.07;100079.66;5012053;28;11380;-71
2021/09/02 04:57:12;;;;;;;;;81.75;62.75;;;;;21.22;65.94;100069.41;4997585;28;10938;-71
2021/09/02 04:59:55;;;;;;;;;72.50;58.50;;;;;21.05;66.30;100061.97;4993999;28;10675;-71
2021/09/02 05:02:50;;;;;;;;;74.00;61.75;;;;;20.95;67.78;100058.06;4993203;28;10759;-71
2021/09/02 05:05:40;;;;;;;;;72.25;61.50;;;;;20.62;68.14;100070.78;4993625;28;10808;-71
2021/09/02 05:08:36;;;;;;;;;67.75;54.50;;;;;20.58;68.58;100081.28;4993334;28;11033;-71
2021/09/02 05:11:32;;;;;;;;;74.75;63.25;;;;;20.55;68.41;100076.50;4993482;28;10561;-71
2021/09/02 05:14:27;;;;;;;;;97.75;77.75;;;;;20.77;67.52;100063.81;4993338;28;11116;-71
2021/09/02 05:17:23;;;;;;;;;79.25;72.00;;;;;20.91;67.30;100059.28;5007277;28;11598;-71
2021/09/02 05:20:18;;;;;;;;;80.00;69.50;;;;;21.17;67.14;100064.25;5012878;28;11583;-71
2021/09/02 05:23:06;;;;;;;;;75.25;67.00;;;;;21.27;67.14;100069.00;5012859;28;11266;-71
2021/09/02 05:26:01;;;;;;;;;104.25;86.25;;;;;21.10;67.60;100067.94;5012718;28;11637;-71
2021/09/02 05:28:57;;;;;;;;;129.00;108.50;;;;;20.54;69.30;100067.22;5012704;28;11648;-71
2021/09/02 05:31:52;;;;;;;;;123.75;106.25;;;;;20.26;70.34;100065.44;5013010;28;11804;-71
2021/09/02 05:34:48;;;;;;;;;122.75;105.75;;;;;20.37;71.17;100062.53;5012563;28;11782;-71
2021/09/02 05:37:43;;;;;;;;;123.00;97.25;;;;;20.38;71.89;100058.50;5012400;28;11722;-71
2021/09/02 05:40:40;;;;;;;;;116.75;98.50;;;;;20.34;72.38;100048.53;5012743;28;11652;-71
2021/09/02 05:43:36;;;;;;;;;108.50;92.00;;;;;20.34;73.22;100049.34;5012578;28;11656;-72
2021/09/02 05:46:31;;;;;;;;;111.50;98.75;;;;;20.56;72.96;100061.22;5012472;28;12366;-72
2021/09/02 05:49:27;;;;;;;;;102.25;92.00;;;;;21.13;70.29;100073.94;5012902;28;11634;-70
2021/09/02 05:52:22;;;;;;;;;97.50;91.75;;;;;21.30;72.92;100076.56;5011535;28;11602;-71
2021/09/02 05:55:19;;;;;;;;;101.25;86.25;;;;;21.14;73.03;100073.50;5002412;28;11670;-70
2021/09/02 05:58:14;;;;;;;;;60.75;50.00;;;;;21.25;73.24;100068.59;4993180;28;11724;-70
2021/09/02 06:01:10;;;;;;;;;45.67;39.00;;;;;21.25;73.36;100077.03;4991398;28;10370;-71
2021/09/02 06:04:06;;;;;;;;;46.33;40.33;;;;;21.24;71.46;100067.00;5007532;28;9340;-71
2021/09/02 06:06:33;;;;;;;;;65.75;52.00;;;;;21.35;72.35;100072.50;5025326;28;9259;-70
2021/09/02 06:09:29;;;;;;;;;44.33;38.33;;;;;21.44;71.79;100069.19;5008470;28;9628;-70
2021/09/02 06:12:24;;;;;;;;;51.00;43.33;;;;;21.05;71.92;100061.97;4996902;28;8942;-71
2021/09/02 06:15:20;;;;;;;;;41.50;36.75;;;;;21.16;71.57;100071.06;5013820;28;9357;-71
2021/09/02 06:18:15;;;;;;;;;44.00;38.00;;;;;21.05;71.79;100062.75;5024261;28;9632;-69
2021/09/02 06:20:48;;;;;;;;;40.25;35.75;;;;;21.12;72.10;100070.31;5022629;28;9162;-70
2021/09/02 06:23:43;;;;;;;;;44.67;38.67;;;;;21.17;73.02;100057.84;5027389;28;8870;-71
2021/09/02 06:26:39;;;;;;;;;48.33;41.67;;;;;21.42;71.47;100060.38;5016022;28;8966;-71
2021/09/02 06:29:34;;;;;;;;;45.33;38.67;;;;;21.52;71.18;100051.00;5032006;28;9024;-71
2021/09/02 06:32:30;;;;;;;;;51.00;43.67;;;;;21.63;71.09;100055.31;5027508;28;9107;-70
2021/09/02 06:35:26;;;;;;;;;57.75;46.50;;;;;21.42;70.79;100057.56;5018820;28;9014;-71
2021/09/02 06:38:21;;;;;;;;;63.00;51.75;;;;;21.54;70.94;100066.25;5030108;28;9533;-71
2021/09/02 06:41:17;;;;;;;;;62.00;50.00;;;;;21.76;70.13;100069.59;5034243;28;10766;-71
2021/09/02 06:44:13;;;;;;;;;67.25;55.00;;;;;21.60;70.50;100061.75;5019838;28;9888;-71
2021/09/02 06:47:08;;;;;;;;;60.50;49.75;;;;;21.76;70.01;100068.78;5019813;28;10402;-71
2021/09/02 06:50:08;;;;;;;;;59.50;48.00;;;;;22.11;68.54;100073.19;5016038;28;9895;-71
2021/09/02 06:53:04;;;;;;;;;55.00;45.67;;;;;21.95;69.41;100073.78;5029641;28;10241;-71
2021/09/02 06:55:33;;;;;;;;;47.67;40.67;;;;;21.89;69.31;100079.06;5034516;28;9118;-70
2021/09/02 06:58:29;;;;;;;;;55.67;45.33;;;;;21.88;70.92;100091.56;5032237;28;9009;-70
2021/09/02 07:01:24;;;;;;;;;54.67;45.00;;;;;21.64;70.73;100089.88;5015745;28;9182;-70
2021/09/02 07:04:20;;;;;;;;;53.00;44.33;;;;;21.50;72.77;100096.44;5017588;28;8931;-70
2021/09/02 07:07:15;;;;;;;;;47.33;40.33;;;;;21.32;74.11;100101.50;5016295;28;9114;-71
2021/09/02 07:09:46;;;;;;;;;49.00;42.00;;;;;21.46;72.93;100097.69;5019146;28;9086;-70
2021/09/02 07:12:42;;;;;;;;;53.67;43.67;;;;;21.31;73.14;100097.06;5034359;28;8965;-70
2021/09/02 07:15:38;;;;;;;;;50.00;42.75;;;;;21.70;72.47;100101.44;5034907;28;8917;-71
2021/09/02 07:18:33;;;;;;;;;48.75;39.00;;;;;21.71;72.96;100094.59;5034271;28;8833;-71
2021/09/02 07:21:29;;;;;;;;;42.67;36.67;;;;;21.55;73.93;100095.19;5034912;28;8838;-71
2021/09/02 07:24:25;;;;;;;;;52.67;42.67;;;;;21.52;73.40;100094.00;5034631;28;9108;-71
2021/09/02 07:27:20;;;;;;;;;43.25;36.25;;;;;21.23;74.37;100092.69;5031657;28;9056;-72
2021/09/02 07:30:16;;;;;;;;;43.75;35.25;;;;;21.23;74.14;100093.50;5031995;28;8860;-71
2021/09/02 07:33:11;;;;;;;;;42.00;36.50;;;;;21.15;75.59;100086.34;5034729;28;8860;-71
2021/09/02 07:36:07;;;;;;;;;44.33;38.67;;;;;21.31;74.57;100089.41;5034659;28;8852;-72
2021/09/02 07:39:03;;;;;;;;;30.00;28.50;;;;;21.34;73.85;100101.84;5024086;28;9698;-72
2021/09/02 07:41:59;;;;;;;;;25.25;25.25;;;;;21.10;73.11;100114.94;5013371;28;9593;-70
2021/09/02 07:44:55;;;;;;;;;19.50;19.50;;;;;21.02;73.81;100114.19;5025963;28;8950;-69
2021/09/02 07:47:51;;;;;;;;;23.00;23.00;;;;;20.99;73.74;100129.06;5013800;28;8872;-71
2021/09/02 07:50:46;;;;;;;;;19.50;19.50;;;;;21.01;74.51;100125.84;4995071;28;8835;-71
2021/09/02 07:53:42;;;;;;;;;18.75;18.75;;;;;21.04;74.54;100145.50;4998441;28;8870;-70
2021/09/02 07:56:10;;;;;;;;;16.00;16.00;;;;;20.93;74.39;100144.78;5015551;28;8869;-70
2021/09/02 07:59:06;;;;;;;;;16.00;16.00;;;;;20.77;75.49;100148.13;5020666;28;8852;-71
2021/09/02 08:02:02;;;;;;;;;15.75;15.25;;;;;20.88;75.51;100152.88;5016242;28;8839;-71
2021/09/02 08:04:30;;;;;;;;;18.00;18.00;;;;;20.41;76.86;100158.00;5014323;28;8848;-71
2021/09/02 08:07:26;;;;;;;;;16.00;16.00;;;;;19.82;79.70;100166.31;5017282;28;8840;-71
2021/09/02 08:09:53;;;;;;;;;13.75;13.75;;;;;20.02;78.69;100170.25;5014419;28;8840;-70
2021/09/02 08:12:50;;;;;;;;;15.00;15.00;;;;;20.32;77.39;100174.47;5017520;28;8859;-70
2021/09/02 08:15:46;;;;;;;;;16.75;16.25;;;;;19.50;79.99;100183.19;5011253;28;8959;-71
2021/09/02 08:18:41;;;;;;;;;14.00;14.00;;;;;20.13;77.34;100187.81;5020026;28;8847;-71
2021/09/02 08:21:09;;;;;;;;;15.00;15.00;;;;;19.41;80.73;100183.63;5029312;28;8853;-72
2021/09/02 08:24:06;;;;;;;;;11.00;11.00;;;;;19.39;80.82;100197.22;5022542;28;8856;-71
2021/09/02 08:27:02;;;;;;;;;14.75;14.75;;;;;19.53;80.70;100191.59;5013410;28;9690;-71
2021/09/02 08:29:57;;;;;;;;;14.75;14.75;;;;;19.24;81.35;100190.03;5016783;28;9641;-70
2021/09/02 08:32:53;;;;;;;;;16.00;16.00;;;;;19.57;79.52;100197.25;5033581;28;8837;-72
2021/09/02 08:35:51;;;;;;;;;14.25;14.00;;;;;19.11;81.63;100192.47;5014820;28;8840;-70
2021/09/02 08:38:48;;;;;;;;;12.50;12.50;;;;;19.59;79.61;100201.22;5013237;28;8828;-72
2021/09/02 08:41:44;;;;;;;;;12.50;12.50;;;;;19.46;80.94;100194.41;5028020;28;8958;-71
2021/09/02 08:44:26;;;;;;;;;14.75;14.75;;;;;19.73;79.65;100197.59;5013801;28;8863;-71
2021/09/02 08:47:23;;;;;;;;;14.75;14.75;;;;;19.64;79.64;100195.22;5013399;28;8854;-70
2021/09/02 08:50:23;;;;;;;;;10.00;10.00;;;;;19.40;80.35;100196.03;5013504;28;8944;-71
2021/09/02 08:53:19;;;;;;;;;11.25;11.25;;;;;19.50;79.72;100192.41;5013450;28;8844;-71
2021/09/02 08:56:15;;;;;;;;;9.50;9.25;;;;;19.85;78.41;100194.34;5013379;28;8828;-73
2021/09/02 08:58:44;;;;;;;;;9.50;9.25;;;;;19.92;78.09;100191.50;5013613;28;8986;-70
2021/09/02 09:01:12;;;;;;;;;10.25;10.25;;;;;19.54;79.86;100189.59;5002508;28;8858;-70
2021/09/02 09:03:53;;;;;;;;;9.25;9.25;;;;;19.48;79.87;100180.81;4993891;28;8969;-69
2021/09/02 09:06:49;;;;;;;;;11.00;11.00;;;;;20.04;77.50;100179.03;4993635;28;8859;-70
2021/09/02 09:09:52;;;;;;;;;12.50;12.50;;;;;20.16;76.74;100178.56;4993589;28;8870;-71
2021/09/02 09:12:41;;;;;;;;;11.50;11.50;;;;;19.88;77.75;100178.72;4992524;28;8862;-71
2021/09/02 09:15:16;;;;;;;;;13.50;13.50;;;;;20.23;77.43;100172.13;4992636;28;9609;-71
2021/09/02 09:18:19;;;;;;;;;11.75;11.75;;;;;20.37;77.41;100169.25;4993092;28;8877;-70
2021/09/02 09:21:11;;;;;;;;;15.50;15.50;;;;;20.29;78.55;100167.69;4992295;28;8885;-71
2021/09/02 09:24:07;;;;;;;;;12.50;12.50;;;;;20.44;77.45;100162.81;4991500;28;8933;-71
2021/09/02 09:26:48;;;;;;;;;14.75;14.00;;;;;20.56;77.96;100165.16;4993316;28;8867;-71
2021/09/02 09:29:30;;;;;;;;;11.50;11.50;;;;;20.64;76.33;100161.09;4994074;28;8854;-70
2021/09/02 09:32:26;;;;;;;;;15.25;15.25;;;;;20.58;77.86;100159.91;4991737;28;8850;-71
2021/09/02 09:35:24;;;;;;;;;9.50;9.50;;;;;20.71;76.78;100160.25;4992977;28;8862;-70
2021/09/02 09:38:18;;;;;;;;;12.75;12.75;;;;;20.82;78.30;100158.13;4993682;28;8863;-70
2021/09/02 09:40:50;;;;;;;;;11.75;11.75;;;;;20.71;76.91;100154.63;4993340;28;8851;-73
2021/09/02 09:43:32;;;;;;;;;11.00;11.00;;;;;20.79;76.55;100144.94;4992742;28;8874;-72
2021/09/02 09:46:28;;;;;;;;;15.50;15.50;;;;;20.47;78.54;100145.13;4999340;28;8874;-73
2021/09/02 09:48:59;;;;;;;;;13.25;13.25;;;;;20.95;76.28;100142.38;4997242;28;8852;-73
2021/09/02 09:51:35;;;;;;;;;13.50;13.50;;;;;20.81;77.19;100146.09;5009551;28;8843;-72
2021/09/02 09:54:31;;;;;;;;;15.50;15.50;;;;;20.59;77.26;100150.28;5005492;28;8877;-73
2021/09/02 09:57:31;;;;;;;;;15.00;15.00;;;;;20.33;77.95;100145.22;5012716;28;8882;-74
2021/09/02 10:00:05;;;;;;;;;15.50;14.50;;;;;20.77;76.36;100142.50;5011373;28;8864;-73
2021/09/02 10:02:36;;;;;;;;;14.00;14.00;;;;;;;;5016896;28;9084;-74
2021/09/02 10:05:06;;;;;;;;;13.50;13.50;;;;;20.92;76.91;100129.13;5011682;28;9659;-74
2021/09/02 10:08:04;;;;;;;;;13.25;13.25;;;;;20.94;78.11;100134.38;5012370;28;9610;-72
2021/09/02 10:10:52;;;;;;;;;15.25;15.00;;;;;20.78;77.61;100127.25;5012757;28;8852;-72
2021/09/02 10:13:48;;;;;;;;;12.75;12.75;;;;;20.78;78.40;100129.28;5012495;28;8860;-72
2021/09/02 10:16:15;;;;;;;;;19.50;19.50;;;;;20.96;78.30;100124.28;5014172;28;8883;-72
2021/09/02 10:18:58;;;;;;;;;17.50;17.25;;;;;20.93;78.73;100129.94;5012803;28;8864;-72
2021/09/02 10:21:57;;;;;;;;;16.50;16.50;;;;;20.86;79.09;100124.41;5015340;28;8861;-72
2021/09/02 10:24:52;;;;;;;;;21.00;20.75;;;;;21.09;78.73;100122.56;5031876;28;8853;-68
2021/09/02 10:27:23;;;;;;;;;20.25;20.00;;;;;21.15;78.45;100122.91;5028278;28;8845;-71
2021/09/02 10:29:53;;;;;;;;;20.75;20.25;;;;;21.38;76.75;100122.28;5015283;28;8844;-72
2021/09/02 10:32:24;;;;;;;;;20.25;20.25;;;;;21.40;77.63;100117.06;5012386;28;8848;-72
2021/09/02 10:35:02;;;;;;;;;18.75;18.75;;;;;21.41;76.99;100126.31;5009732;28;9573;-71
2021/09/02 10:37:36;;;;;;;;;19.00;19.00;;;;;21.55;77.56;100126.16;5012555;28;8902;-72
2021/09/02 10:40:35;;;;;;;;;20.00;20.00;;;;;21.55;77.27;100128.97;5010471;28;8966;-72
2021/09/02 10:43:55;;;;;;;;;16.50;16.50;;;;;21.56;77.68;100128.53;5004651;28;8840;-72
2021/09/02 10:46:29;;;;;;;;;18.00;18.00;;;;;21.76;77.52;100125.88;5012328;28;8855;-79
2021/09/02 10:49:28;;;;;;;;;19.50;19.50;;;;;21.85;76.37;100123.38;5010691;28;8856;-72
2021/09/02 10:52:27;;;;;;;;;19.00;19.00;;;;;21.98;75.92;100125.59;5015018;28;8861;-72
2021/09/02 10:55:33;;;;;;;;;19.75;19.75;;;;;21.91;74.02;100126.50;5009745;28;8917;-71
2021/09/02 10:58:44;;;;;;;;;23.50;23.50;;;;;22.04;74.06;100126.75;5016184;28;8894;-72
2021/09/02 11:01:40;;;;;;;;;18.00;18.00;;;;;22.12;74.82;100128.25;5015618;28;8844;-71
2021/09/02 11:04:12;;;;;;;;;15.25;15.25;;;;;22.46;74.00;100125.34;5014474;28;8957;-71
2021/09/02 11:07:09;;;;;;;;;22.00;22.00;;;;;22.58;72.58;100118.34;5015861;28;8828;-72
2021/09/02 11:10:16;;;;;;;;;22.25;22.25;;;;;22.67;71.97;100125.03;5016102;28;9554;-72
2021/09/02 11:13:14;;;;;;;;;19.75;19.75;;;;;23.24;72.14;100126.91;5016997;28;8827;-70
2021/09/02 11:16:14;;;;;;;;;24.50;24.50;;;;;23.58;69.70;100126.63;5035030;28;8869;-70
2021/09/02 11:19:09;;;;;;;;;24.50;24.50;;;;;23.83;68.59;100123.34;5035173;28;9591;-70
2021/09/02 11:22:16;;;;;;;;;30.00;29.00;;;;;23.53;65.92;100129.16;5035118;28;8841;-69
2021/09/02 11:25:12;;;;;;;;;28.00;28.00;;;;;23.61;65.56;100127.81;5034001;28;8930;-69
2021/09/02 11:27:40;;;;;;;;;32.00;31.25;;;;;23.82;65.27;100120.94;5034211;28;8897;-69
2021/09/02 11:30:35;;;;;;;;;31.00;29.75;;;;;24.13;63.56;100127.94;5035091;28;8826;-69
2021/09/02 11:33:44;;;;;;;;;20.50;20.50;;;;;24.27;63.63;100117.56;5017050;28;8844;-69
2021/09/02 11:36:46;;;;;;;;;29.25;29.25;;;;;24.05;63.30;100114.41;4995163;28;8832;-69
2021/09/02 11:39:50;;;;;;;;;25.75;25.75;;;;;24.52;61.07;100108.53;5025509;28;8867;-68
2021/09/02 11:42:46;;;;;;;;;21.40;21.40;;;;;24.62;61.21;100113.94;5014671;28;8840;-68
2021/09/02 11:45:16;;;;;;;;;21.20;21.20;;;;;24.76;60.07;100126.09;5016574;28;8839;-69
2021/09/02 11:48:11;;;;;;;;;18.40;18.40;;;;;24.29;60.76;100115.88;5012794;28;8877;-70
2021/09/02 11:51:07;;;;;;;;;18.60;18.60;;;;;24.09;61.89;100115.94;5012537;28;8824;-70
2021/09/02 11:54:05;;;;;;;;;15.40;15.40;;;;;24.08;61.76;100116.38;5014551;28;8836;-70
2021/09/02 11:57:03;;;;;;;;;17.40;17.40;;;;;23.73;62.30;100126.38;5013308;28;9655;-71
2021/09/02 11:59:58;;;;;;;;;19.75;19.75;;;;;23.64;64.89;100131.81;5002552;28;8961;-73
2021/09/02 12:02:56;;;;;;;;;15.50;15.50;;;;;23.61;66.10;100135.50;4996607;28;8919;-72
2021/09/02 12:05:40;;;;;;;;;18.00;18.00;;;;;23.65;66.27;100134.22;5016441;28;8847;-72
2021/09/02 12:08:36;;;;;;;;;16.40;16.40;;;;;23.32;68.83;100133.22;5009873;28;8847;-73
2021/09/02 12:11:32;;;;;;;;;13.60;13.60;;;;;23.27;67.09;100131.66;5001463;28;8873;-71
2021/09/02 12:14:30;;;;;;;;;15.40;15.40;;;;;23.37;68.50;100131.91;4994537;28;8835;-73
2021/09/02 12:17:33;;;;;;;;;13.40;13.00;;;;;23.37;69.25;100135.50;4994446;28;9674;-72
2021/09/02 12:20:04;;;;;;;;;12.20;12.20;;;;;23.02;66.32;100137.78;4998279;28;8872;-73
2021/09/02 12:23:22;;;;;;;;;13.80;13.80;;;;;22.54;65.18;100143.72;5023169;28;9629;-72
2021/09/02 12:26:23;;;;;;;;;11.50;11.50;;;;;22.26;67.11;100139.34;4992734;28;8835;-72
2021/09/02 12:29:22;;;;;;;;;9.00;9.00;;;;;21.72;66.65;100149.66;5012059;28;8852;-72
2021/09/02 12:32:20;;;;;;;;;8.50;8.50;;;;;21.81;66.85;100150.75;5020275;28;8837;-72
2021/09/02 12:35:18;;;;;;;;;10.75;10.75;;;;;21.85;68.19;100150.69;5012221;28;8878;-70
2021/09/02 12:38:37;;;;;;;;;13.00;12.25;;;;;21.63;67.34;100155.81;5013842;28;8859;-70
2021/09/02 12:41:40;;;;;;;;;10.50;10.50;;;;;21.91;68.71;100163.88;4994062;28;8884;-72
2021/09/02 12:44:38;;;;;;;;;10.75;10.75;;;;;21.83;67.13;100165.19;4992196;28;8865;-73
2021/09/02 12:47:35;;;;;;;;;10.00;10.00;;;;;22.09;67.22;100160.09;5013270;28;9701;-72
2021/09/02 12:50:30;;;;;;;;;8.00;8.00;;;;;22.07;66.26;100165.31;5007134;28;8840;-72
2021/09/02 12:53:29;;;;;;;;;10.00;9.75;;;;;21.87;64.08;100168.78;4996464;28;8838;-72
2021/09/02 12:56:36;;;;;;;;;5.75;5.75;;;;;21.73;65.49;100174.56;5000153;28;8828;-73
2021/09/02 12:59:31;;;;;;;;;7.75;7.75;;;;;21.79;64.27;100178.53;5022084;28;8858;-72
2021/09/02 13:02:27;;;;;;;;;7.75;7.75;;;;;21.62;64.06;100173.88;5007769;28;8838;-73
2021/09/02 13:05:10;;;;;;;;;8.00;8.00;;;;;21.62;63.54;100177.50;5016772;28;8993;-73
2021/09/02 13:08:07;;;;;;;;;6.50;6.50;;;;;21.56;63.62;100182.00;5013106;28;9598;-71